sensor_id;sensor_type;location;lat;lon;timestamp;temperature;humidity
7576;DHT22;3829;50.798;4.358;2023-07-16T00:01:59;16.40;99.90
7576;DHT22;3829;50.798;4.358;2023-07-16T00:04:25;16.40;99.90
7576;DHT22;3829;50.798;4.358;2023-07-16T00:06:50;16.40;99.90
7576;DHT22;3829;50.798;4.358;2023-07-16T00:09:16;16.40;99.90
7576;DHT22;3829;50.798;4.358;2023-07-16T00:11:41;16.40;99.90
7576;DHT22;3829;50.798;4.358;2023-07-16T00:14:07;16.30;99.90
7576;DHT22;3829;50.798;4.358;2023-07-16T00:16:33;16.30;99.90
7576;DHT22;3829;50.798;4.358;2023-07-16T00:18:59;16.30;99.90
7576;DHT22;3829;50.798;4.358;2023-07-16T00:21:24;16.30;99.90
7576;DHT22;3829;50.798;4.358;2023-07-16T00:23:50;16.30;99.90
7576;DHT22;3829;50.798;4.358;2023-07-16T00:26:16;16.20;99.90
7576;DHT22;3829;50.798;4.358;2023-07-16T00:28:42;16.20;99.90
7576;DHT22;3829;50.798;4.358;2023-07-16T00:31:07;16.10;99.90
7576;DHT22;3829;50.798;4.358;2023-07-16T00:33:33;16.20;99.90
7576;DHT22;3829;50.798;4.358;2023-07-16T00:35:58;16.10;99.90
7576;DHT22;3829;50.798;4.358;2023-07-16T00:38:24;16.10;99.90
7576;DHT22;3829;50.798;4.358;2023-07-16T00:40:50;16.20;99.90
7576;DHT22;3829;50.798;4.358;2023-07-16T00:43:15;16.00;99.90
7576;DHT22;3829;50.798;4.358;2023-07-16T00:45:42;16.10;99.90
7576;DHT22;3829;50.798;4.358;2023-07-16T00:48:10;16.00;99.90
7576;DHT22;3829;50.798;4.358;2023-07-16T00:50:38;16.10;99.90
7576;DHT22;3829;50.798;4.358;2023-07-16T00:53:06;16.10;99.90
7576;DHT22;3829;50.798;4.358;2023-07-16T00:55:32;16.00;99.90
7576;DHT22;3829;50.798;4.358;2023-07-16T00:58:03;16.00;99.90
7576;DHT22;3829;50.798;4.358;2023-07-16T01:00:31;16.00;99.90
7576;DHT22;3829;50.798;4.358;2023-07-16T01:02:57;16.00;99.90
7576;DHT22;3829;50.798;4.358;2023-07-16T01:05:24;16.00;99.90
7576;DHT22;3829;50.798;4.358;2023-07-16T01:07:57;16.00;99.90
7576;DHT22;3829;50.798;4.358;2023-07-16T01:10:26;15.90;99.90
7576;DHT22;3829;50.798;4.358;2023-07-16T01:12:54;15.90;99.90
7576;DHT22;3829;50.798;4.358;2023-07-16T01:15:21;15.90;99.90
7576;DHT22;3829;50.798;4.358;2023-07-16T01:17:46;15.90;99.90
7576;DHT22;3829;50.798;4.358;2023-07-16T01:20:12;15.90;99.90
7576;DHT22;3829;50.798;4.358;2023-07-16T01:22:56;15.80;99.90
7576;DHT22;3829;50.798;4.358;2023-07-16T01:25:43;15.80;99.90
7576;DHT22;3829;50.798;4.358;2023-07-16T01:28:27;15.70;99.90
7576;DHT22;3829;50.798;4.358;2023-07-16T01:30:58;15.80;99.90
7576;DHT22;3829;50.798;4.358;2023-07-16T01:33:25;15.70;99.90
7576;DHT22;3829;50.798;4.358;2023-07-16T01:35:52;15.70;99.90
7576;DHT22;3829;50.798;4.358;2023-07-16T01:38:18;15.60;99.90
7576;DHT22;3829;50.798;4.358;2023-07-16T01:40:44;15.50;99.90
7576;DHT22;3829;50.798;4.358;2023-07-16T01:43:10;15.40;99.90
7576;DHT22;3829;50.798;4.358;2023-07-16T01:45:35;15.40;99.90
7576;DHT22;3829;50.798;4.358;2023-07-16T01:48:14;15.30;99.90
7576;DHT22;3829;50.798;4.358;2023-07-16T01:50:41;15.30;99.90
7576;DHT22;3829;50.798;4.358;2023-07-16T01:53:07;15.40;99.90
7576;DHT22;3829;50.798;4.358;2023-07-16T01:55:33;15.50;99.90
7576;DHT22;3829;50.798;4.358;2023-07-16T01:57:58;15.40;99.90
7576;DHT22;3829;50.798;4.358;2023-07-16T02:00:24;15.40;99.90
7576;DHT22;3829;50.798;4.358;2023-07-16T02:02:49;15.50;99.90
7576;DHT22;3829;50.798;4.358;2023-07-16T02:05:16;15.50;99.90
7576;DHT22;3829;50.798;4.358;2023-07-16T02:07:41;15.40;99.90
7576;DHT22;3829;50.798;4.358;2023-07-16T02:10:07;15.40;99.90
7576;DHT22;3829;50.798;4.358;2023-07-16T02:12:33;15.40;99.90
7576;DHT22;3829;50.798;4.358;2023-07-16T02:14:58;15.40;99.90
7576;DHT22;3829;50.798;4.358;2023-07-16T02:17:24;15.50;99.90
7576;DHT22;3829;50.798;4.358;2023-07-16T02:19:49;15.40;99.90
7576;DHT22;3829;50.798;4.358;2023-07-16T02:22:15;15.40;99.90
7576;DHT22;3829;50.798;4.358;2023-07-16T02:24:40;15.50;99.90
7576;DHT22;3829;50.798;4.358;2023-07-16T02:27:06;15.50;99.90
7576;DHT22;3829;50.798;4.358;2023-07-16T02:29:32;15.60;99.90
7576;DHT22;3829;50.798;4.358;2023-07-16T02:31:57;15.60;99.90
7576;DHT22;3829;50.798;4.358;2023-07-16T02:34:23;15.60;99.90
7576;DHT22;3829;50.798;4.358;2023-07-16T02:36:48;15.60;99.90
7576;DHT22;3829;50.798;4.358;2023-07-16T02:39:14;15.60;99.90
7576;DHT22;3829;50.798;4.358;2023-07-16T02:41:39;15.60;99.90
7576;DHT22;3829;50.798;4.358;2023-07-16T02:44:06;15.50;99.90
7576;DHT22;3829;50.798;4.358;2023-07-16T02:46:32;15.60;99.90
7576;DHT22;3829;50.798;4.358;2023-07-16T02:48:57;15.60;99.90
7576;DHT22;3829;50.798;4.358;2023-07-16T02:51:23;15.60;99.90
7576;DHT22;3829;50.798;4.358;2023-07-16T02:53:49;15.60;99.90
7576;DHT22;3829;50.798;4.358;2023-07-16T02:56:14;15.50;99.90
7576;DHT22;3829;50.798;4.358;2023-07-16T02:58:40;15.50;99.90
7576;DHT22;3829;50.798;4.358;2023-07-16T03:01:05;15.60;99.90
7576;DHT22;3829;50.798;4.358;2023-07-16T03:03:31;15.50;99.90
7576;DHT22;3829;50.798;4.358;2023-07-16T03:05:56;15.60;99.90
7576;DHT22;3829;50.798;4.358;2023-07-16T03:08:22;15.60;99.90
7576;DHT22;3829;50.798;4.358;2023-07-16T03:10:51;15.50;99.90
7576;DHT22;3829;50.798;4.358;2023-07-16T03:13:17;15.40;99.90
7576;DHT22;3829;50.798;4.358;2023-07-16T03:15:43;15.50;99.90
7576;DHT22;3829;50.798;4.358;2023-07-16T03:18:08;15.50;99.90
7576;DHT22;3829;50.798;4.358;2023-07-16T03:20:34;15.50;99.90
7576;DHT22;3829;50.798;4.358;2023-07-16T03:22:59;15.50;99.90
7576;DHT22;3829;50.798;4.358;2023-07-16T03:25:25;15.60;99.90
7576;DHT22;3829;50.798;4.358;2023-07-16T03:27:50;15.60;99.90
7576;DHT22;3829;50.798;4.358;2023-07-16T03:30:16;15.50;99.90
7576;DHT22;3829;50.798;4.358;2023-07-16T03:32:41;15.50;99.90
7576;DHT22;3829;50.798;4.358;2023-07-16T03:35:07;15.60;99.90
7576;DHT22;3829;50.798;4.358;2023-07-16T03:37:33;15.60;99.90
7576;DHT22;3829;50.798;4.358;2023-07-16T03:40:13;15.60;99.90
7576;DHT22;3829;50.798;4.358;2023-07-16T03:42:40;15.50;99.90
7576;DHT22;3829;50.798;4.358;2023-07-16T03:45:06;15.50;99.90
7576;DHT22;3829;50.798;4.358;2023-07-16T03:47:32;15.60;99.90
7576;DHT22;3829;50.798;4.358;2023-07-16T03:49:57;15.60;99.90
7576;DHT22;3829;50.798;4.358;2023-07-16T03:52:23;15.60;99.90
7576;DHT22;3829;50.798;4.358;2023-07-16T03:54:50;15.60;99.90
7576;DHT22;3829;50.798;4.358;2023-07-16T03:57:16;15.50;99.90
7576;DHT22;3829;50.798;4.358;2023-07-16T03:59:42;15.50;99.90
7576;DHT22;3829;50.798;4.358;2023-07-16T04:02:08;15.50;99.90
7576;DHT22;3829;50.798;4.358;2023-07-16T04:04:34;15.60;99.90
7576;DHT22;3829;50.798;4.358;2023-07-16T04:06:59;15.60;99.90
7576;DHT22;3829;50.798;4.358;2023-07-16T04:09:25;15.60;99.90
7576;DHT22;3829;50.798;4.358;2023-07-16T04:11:51;15.60;99.90
7576;DHT22;3829;50.798;4.358;2023-07-16T04:14:16;15.60;99.90
7576;DHT22;3829;50.798;4.358;2023-07-16T04:16:42;15.60;99.90
7576;DHT22;3829;50.798;4.358;2023-07-16T04:19:08;15.60;99.90
7576;DHT22;3829;50.798;4.358;2023-07-16T04:21:34;15.60;99.90
7576;DHT22;3829;50.798;4.358;2023-07-16T04:24:02;15.60;99.90
7576;DHT22;3829;50.798;4.358;2023-07-16T04:26:27;15.60;99.90
7576;DHT22;3829;50.798;4.358;2023-07-16T04:28:53;15.60;99.90
7576;DHT22;3829;50.798;4.358;2023-07-16T04:31:18;15.70;99.90
7576;DHT22;3829;50.798;4.358;2023-07-16T04:33:44;15.70;99.90
7576;DHT22;3829;50.798;4.358;2023-07-16T04:36:09;15.70;99.90
7576;DHT22;3829;50.798;4.358;2023-07-16T04:38:35;15.70;99.90
7576;DHT22;3829;50.798;4.358;2023-07-16T04:41:01;15.70;99.90
7576;DHT22;3829;50.798;4.358;2023-07-16T04:43:26;15.70;99.90
7576;DHT22;3829;50.798;4.358;2023-07-16T04:45:52;15.70;99.90
7576;DHT22;3829;50.798;4.358;2023-07-16T04:48:17;15.70;99.90
7576;DHT22;3829;50.798;4.358;2023-07-16T04:50:43;15.70;99.90
7576;DHT22;3829;50.798;4.358;2023-07-16T04:53:08;15.70;99.90
7576;DHT22;3829;50.798;4.358;2023-07-16T04:55:37;15.70;99.90
7576;DHT22;3829;50.798;4.358;2023-07-16T04:58:02;15.80;99.90
7576;DHT22;3829;50.798;4.358;2023-07-16T05:00:28;15.80;99.90
7576;DHT22;3829;50.798;4.358;2023-07-16T05:02:54;15.80;99.90
7576;DHT22;3829;50.798;4.358;2023-07-16T05:05:19;15.80;99.90
7576;DHT22;3829;50.798;4.358;2023-07-16T05:07:45;15.90;99.90
7576;DHT22;3829;50.798;4.358;2023-07-16T05:10:11;15.90;99.90
7576;DHT22;3829;50.798;4.358;2023-07-16T05:12:36;16.00;99.90
7576;DHT22;3829;50.798;4.358;2023-07-16T05:15:02;16.00;99.90
7576;DHT22;3829;50.798;4.358;2023-07-16T05:17:28;16.00;99.90
7576;DHT22;3829;50.798;4.358;2023-07-16T05:19:53;16.10;99.90
7576;DHT22;3829;50.798;4.358;2023-07-16T05:22:19;16.10;99.90
7576;DHT22;3829;50.798;4.358;2023-07-16T05:24:44;16.10;99.90
7576;DHT22;3829;50.798;4.358;2023-07-16T05:27:10;16.20;99.90
7576;DHT22;3829;50.798;4.358;2023-07-16T05:29:36;16.20;99.90
7576;DHT22;3829;50.798;4.358;2023-07-16T05:32:02;16.20;99.90
7576;DHT22;3829;50.798;4.358;2023-07-16T05:34:27;16.30;99.90
7576;DHT22;3829;50.798;4.358;2023-07-16T05:36:54;16.30;99.90
7576;DHT22;3829;50.798;4.358;2023-07-16T05:39:21;16.30;99.90
7576;DHT22;3829;50.798;4.358;2023-07-16T05:41:46;16.40;99.90
7576;DHT22;3829;50.798;4.358;2023-07-16T05:44:12;16.40;99.90
7576;DHT22;3829;50.798;4.358;2023-07-16T05:46:38;16.50;99.90
7576;DHT22;3829;50.798;4.358;2023-07-16T05:49:03;16.50;99.90
7576;DHT22;3829;50.798;4.358;2023-07-16T05:51:29;16.50;99.90
7576;DHT22;3829;50.798;4.358;2023-07-16T05:53:54;16.50;99.90
7576;DHT22;3829;50.798;4.358;2023-07-16T05:56:20;16.60;99.90
7576;DHT22;3829;50.798;4.358;2023-07-16T05:58:45;16.60;99.90
7576;DHT22;3829;50.798;4.358;2023-07-16T06:01:11;16.70;99.90
7576;DHT22;3829;50.798;4.358;2023-07-16T06:03:37;16.70;99.90
7576;DHT22;3829;50.798;4.358;2023-07-16T06:06:05;16.80;99.90
7576;DHT22;3829;50.798;4.358;2023-07-16T06:08:33;16.80;99.90
7576;DHT22;3829;50.798;4.358;2023-07-16T06:10:59;16.80;99.90
7576;DHT22;3829;50.798;4.358;2023-07-16T06:13:24;16.90;99.90
7576;DHT22;3829;50.798;4.358;2023-07-16T06:15:50;16.90;99.90
7576;DHT22;3829;50.798;4.358;2023-07-16T06:18:15;16.90;99.90
7576;DHT22;3829;50.798;4.358;2023-07-16T06:20:45;16.90;99.90
7576;DHT22;3829;50.798;4.358;2023-07-16T06:23:11;16.90;99.90
7576;DHT22;3829;50.798;4.358;2023-07-16T06:25:37;16.90;99.90
7576;DHT22;3829;50.798;4.358;2023-07-16T06:28:03;17.00;99.90
7576;DHT22;3829;50.798;4.358;2023-07-16T06:30:29;16.90;99.90
7576;DHT22;3829;50.798;4.358;2023-07-16T06:32:57;17.00;99.90
7576;DHT22;3829;50.798;4.358;2023-07-16T06:35:23;17.20;99.90
7576;DHT22;3829;50.798;4.358;2023-07-16T06:37:48;17.40;99.90
7576;DHT22;3829;50.798;4.358;2023-07-16T06:40:14;17.40;99.90
7576;DHT22;3829;50.798;4.358;2023-07-16T06:42:39;17.50;99.90
7576;DHT22;3829;50.798;4.358;2023-07-16T06:45:05;17.60;99.90
7576;DHT22;3829;50.798;4.358;2023-07-16T06:47:31;17.50;99.90
7576;DHT22;3829;50.798;4.358;2023-07-16T06:49:57;17.60;99.90
7576;DHT22;3829;50.798;4.358;2023-07-16T06:52:23;17.70;99.90
7576;DHT22;3829;50.798;4.358;2023-07-16T06:54:53;17.70;99.90
7576;DHT22;3829;50.798;4.358;2023-07-16T06:57:18;17.90;99.90
7576;DHT22;3829;50.798;4.358;2023-07-16T06:59:44;17.80;99.90
7576;DHT22;3829;50.798;4.358;2023-07-16T07:02:10;18.00;99.90
7576;DHT22;3829;50.798;4.358;2023-07-16T07:04:35;17.90;99.90
7576;DHT22;3829;50.798;4.358;2023-07-16T07:07:01;18.10;99.90
7576;DHT22;3829;50.798;4.358;2023-07-16T07:09:26;18.30;99.90
7576;DHT22;3829;50.798;4.358;2023-07-16T07:11:52;18.50;99.90
7576;DHT22;3829;50.798;4.358;2023-07-16T07:14:18;18.50;99.90
7576;DHT22;3829;50.798;4.358;2023-07-16T07:16:43;18.30;99.90
7576;DHT22;3829;50.798;4.358;2023-07-16T07:19:09;18.40;99.90
7576;DHT22;3829;50.798;4.358;2023-07-16T07:21:34;18.50;99.90
7576;DHT22;3829;50.798;4.358;2023-07-16T07:24:00;18.50;99.90
7576;DHT22;3829;50.798;4.358;2023-07-16T07:26:26;18.70;99.90
7576;DHT22;3829;50.798;4.358;2023-07-16T07:28:51;18.90;99.90
7576;DHT22;3829;50.798;4.358;2023-07-16T07:31:17;19.00;99.90
7576;DHT22;3829;50.798;4.358;2023-07-16T07:33:42;19.10;99.90
7576;DHT22;3829;50.798;4.358;2023-07-16T07:36:08;19.40;99.90
7576;DHT22;3829;50.798;4.358;2023-07-16T07:38:33;19.50;99.90
7576;DHT22;3829;50.798;4.358;2023-07-16T07:40:59;19.90;99.90
7576;DHT22;3829;50.798;4.358;2023-07-16T07:43:25;20.00;99.90
7576;DHT22;3829;50.798;4.358;2023-07-16T07:45:50;20.10;99.90
7576;DHT22;3829;50.798;4.358;2023-07-16T07:48:16;20.30;99.90
7576;DHT22;3829;50.798;4.358;2023-07-16T07:50:41;20.30;99.90
7576;DHT22;3829;50.798;4.358;2023-07-16T07:53:07;20.20;99.90
7576;DHT22;3829;50.798;4.358;2023-07-16T07:55:34;20.20;99.90
7576;DHT22;3829;50.798;4.358;2023-07-16T07:58:00;20.30;99.90
7576;DHT22;3829;50.798;4.358;2023-07-16T08:00:26;20.30;99.90
7576;DHT22;3829;50.798;4.358;2023-07-16T08:02:52;20.40;99.90
7576;DHT22;3829;50.798;4.358;2023-07-16T08:05:17;20.40;99.90
7576;DHT22;3829;50.798;4.358;2023-07-16T08:07:43;20.40;99.90
7576;DHT22;3829;50.798;4.358;2023-07-16T08:10:08;20.40;99.90
7576;DHT22;3829;50.798;4.358;2023-07-16T08:12:34;20.20;99.90
7576;DHT22;3829;50.798;4.358;2023-07-16T08:15:00;20.30;99.90
7576;DHT22;3829;50.798;4.358;2023-07-16T08:17:26;20.40;99.90
7576;DHT22;3829;50.798;4.358;2023-07-16T08:19:51;20.30;99.90
7576;DHT22;3829;50.798;4.358;2023-07-16T08:22:17;20.40;99.90
7576;DHT22;3829;50.798;4.358;2023-07-16T08:24:42;20.40;99.90
7576;DHT22;3829;50.798;4.358;2023-07-16T08:27:08;20.20;99.90
7576;DHT22;3829;50.798;4.358;2023-07-16T08:29:36;20.00;99.90
7576;DHT22;3829;50.798;4.358;2023-07-16T08:32:01;19.80;99.90
7576;DHT22;3829;50.798;4.358;2023-07-16T08:34:28;19.90;99.90
7576;DHT22;3829;50.798;4.358;2023-07-16T08:36:53;19.80;99.90
7576;DHT22;3829;50.798;4.358;2023-07-16T08:39:19;19.80;99.90
7576;DHT22;3829;50.798;4.358;2023-07-16T08:41:46;20.30;99.90
7576;DHT22;3829;50.798;4.358;2023-07-16T08:44:12;20.90;99.90
7576;DHT22;3829;50.798;4.358;2023-07-16T08:46:39;21.50;99.90
7576;DHT22;3829;50.798;4.358;2023-07-16T08:49:07;21.80;99.90
7576;DHT22;3829;50.798;4.358;2023-07-16T08:51:34;22.00;99.90
7576;DHT22;3829;50.798;4.358;2023-07-16T08:54:00;22.10;99.90
7576;DHT22;3829;50.798;4.358;2023-07-16T08:56:26;22.20;99.90
7576;DHT22;3829;50.798;4.358;2023-07-16T08:58:54;22.00;99.90
7576;DHT22;3829;50.798;4.358;2023-07-16T09:01:22;22.00;99.90
7576;DHT22;3829;50.798;4.358;2023-07-16T09:03:47;21.80;99.90
7576;DHT22;3829;50.798;4.358;2023-07-16T09:06:13;21.60;99.90
7576;DHT22;3829;50.798;4.358;2023-07-16T09:08:39;21.70;99.90
7576;DHT22;3829;50.798;4.358;2023-07-16T09:11:05;21.60;99.90
7576;DHT22;3829;50.798;4.358;2023-07-16T09:13:30;21.70;99.90
7576;DHT22;3829;50.798;4.358;2023-07-16T09:15:57;21.80;99.90
7576;DHT22;3829;50.798;4.358;2023-07-16T09:18:26;22.00;99.90
7576;DHT22;3829;50.798;4.358;2023-07-16T09:20:58;21.60;99.90
7576;DHT22;3829;50.798;4.358;2023-07-16T09:23:25;21.60;99.90
7576;DHT22;3829;50.798;4.358;2023-07-16T09:25:51;21.50;99.90
7576;DHT22;3829;50.798;4.358;2023-07-16T09:28:19;21.30;99.90
7576;DHT22;3829;50.798;4.358;2023-07-16T09:30:45;21.70;99.90
7576;DHT22;3829;50.798;4.358;2023-07-16T09:33:15;21.70;99.90
7576;DHT22;3829;50.798;4.358;2023-07-16T09:35:41;21.80;99.90
7576;DHT22;3829;50.798;4.358;2023-07-16T09:38:08;21.50;99.90
7576;DHT22;3829;50.798;4.358;2023-07-16T09:40:35;21.40;99.90
7576;DHT22;3829;50.798;4.358;2023-07-16T09:43:01;21.20;99.90
7576;DHT22;3829;50.798;4.358;2023-07-16T09:45:27;21.40;99.90
7576;DHT22;3829;50.798;4.358;2023-07-16T09:47:53;21.50;99.90
7576;DHT22;3829;50.798;4.358;2023-07-16T09:50:19;21.80;99.90
7576;DHT22;3829;50.798;4.358;2023-07-16T09:52:46;21.90;99.90
7576;DHT22;3829;50.798;4.358;2023-07-16T09:55:13;22.10;99.90
7576;DHT22;3829;50.798;4.358;2023-07-16T09:57:42;22.20;99.90
7576;DHT22;3829;50.798;4.358;2023-07-16T10:00:10;22.20;99.90
7576;DHT22;3829;50.798;4.358;2023-07-16T10:02:38;22.10;99.90
7576;DHT22;3829;50.798;4.358;2023-07-16T10:05:14;22.20;99.90
7576;DHT22;3829;50.798;4.358;2023-07-16T10:07:40;22.20;99.90
7576;DHT22;3829;50.798;4.358;2023-07-16T10:10:09;21.80;99.90
7576;DHT22;3829;50.798;4.358;2023-07-16T10:12:35;21.50;99.90
7576;DHT22;3829;50.798;4.358;2023-07-16T10:15:01;21.30;99.90
7576;DHT22;3829;50.798;4.358;2023-07-16T10:17:30;21.00;99.90
7576;DHT22;3829;50.798;4.358;2023-07-16T10:20:06;21.10;99.90
7576;DHT22;3829;50.798;4.358;2023-07-16T10:22:53;20.80;99.90
7576;DHT22;3829;50.798;4.358;2023-07-16T10:25:26;20.70;99.90
7576;DHT22;3829;50.798;4.358;2023-07-16T10:27:53;20.50;99.90
7576;DHT22;3829;50.798;4.358;2023-07-16T10:30:20;20.60;99.90
7576;DHT22;3829;50.798;4.358;2023-07-16T10:32:45;20.80;99.90
7576;DHT22;3829;50.798;4.358;2023-07-16T10:35:12;20.90;99.90
7576;DHT22;3829;50.798;4.358;2023-07-16T10:37:39;21.10;99.90
7576;DHT22;3829;50.798;4.358;2023-07-16T10:40:05;21.00;99.90
7576;DHT22;3829;50.798;4.358;2023-07-16T10:42:34;20.80;99.90
7576;DHT22;3829;50.798;4.358;2023-07-16T10:45:02;20.80;99.90
7576;DHT22;3829;50.798;4.358;2023-07-16T10:47:33;21.10;99.90
7576;DHT22;3829;50.798;4.358;2023-07-16T10:50:00;21.60;99.90
7576;DHT22;3829;50.798;4.358;2023-07-16T10:52:26;22.20;99.90
7576;DHT22;3829;50.798;4.358;2023-07-16T10:54:52;22.30;99.90
7576;DHT22;3829;50.798;4.358;2023-07-16T10:57:21;22.30;99.90
7576;DHT22;3829;50.798;4.358;2023-07-16T10:59:48;21.90;99.90
7576;DHT22;3829;50.798;4.358;2023-07-16T11:02:16;22.10;99.90
7576;DHT22;3829;50.798;4.358;2023-07-16T11:04:43;22.30;99.90
7576;DHT22;3829;50.798;4.358;2023-07-16T11:07:11;22.40;99.90
7576;DHT22;3829;50.798;4.358;2023-07-16T11:09:49;22.10;99.90
7576;DHT22;3829;50.798;4.358;2023-07-16T11:12:17;21.70;99.90
7576;DHT22;3829;50.798;4.358;2023-07-16T11:14:47;21.60;99.90
7576;DHT22;3829;50.798;4.358;2023-07-16T11:17:14;21.50;99.90
7576;DHT22;3829;50.798;4.358;2023-07-16T11:19:41;21.40;99.90
7576;DHT22;3829;50.798;4.358;2023-07-16T11:22:09;21.50;99.90
7576;DHT22;3829;50.798;4.358;2023-07-16T11:24:39;21.20;99.90
7576;DHT22;3829;50.798;4.358;2023-07-16T11:27:12;21.00;99.90
7576;DHT22;3829;50.798;4.358;2023-07-16T11:29:38;21.00;99.90
7576;DHT22;3829;50.798;4.358;2023-07-16T11:32:04;21.10;99.90
7576;DHT22;3829;50.798;4.358;2023-07-16T11:34:30;20.90;99.90
7576;DHT22;3829;50.798;4.358;2023-07-16T11:37:10;20.60;99.90
7576;DHT22;3829;50.798;4.358;2023-07-16T11:39:35;20.30;99.90
7576;DHT22;3829;50.798;4.358;2023-07-16T11:42:02;19.80;99.90
7576;DHT22;3829;50.798;4.358;2023-07-16T11:44:36;19.40;99.90
7576;DHT22;3829;50.798;4.358;2023-07-16T11:47:03;19.30;99.90
7576;DHT22;3829;50.798;4.358;2023-07-16T11:49:29;19.40;99.90
7576;DHT22;3829;50.798;4.358;2023-07-16T11:51:56;19.70;99.90
7576;DHT22;3829;50.798;4.358;2023-07-16T11:54:21;20.00;99.90
7576;DHT22;3829;50.798;4.358;2023-07-16T11:56:47;20.20;99.90
7576;DHT22;3829;50.798;4.358;2023-07-16T11:59:13;20.50;99.90
7576;DHT22;3829;50.798;4.358;2023-07-16T12:01:39;20.80;99.90
7576;DHT22;3829;50.798;4.358;2023-07-16T12:04:04;21.30;99.90
7576;DHT22;3829;50.798;4.358;2023-07-16T12:06:30;21.70;99.90
7576;DHT22;3829;50.798;4.358;2023-07-16T12:08:55;22.20;99.90
7576;DHT22;3829;50.798;4.358;2023-07-16T12:11:21;22.40;99.90
7576;DHT22;3829;50.798;4.358;2023-07-16T12:13:47;22.90;99.90
7576;DHT22;3829;50.798;4.358;2023-07-16T12:16:13;23.40;99.90
7576;DHT22;3829;50.798;4.358;2023-07-16T12:18:38;23.80;99.90
7576;DHT22;3829;50.798;4.358;2023-07-16T12:21:04;24.30;99.90
7576;DHT22;3829;50.798;4.358;2023-07-16T12:23:31;24.30;99.90
7576;DHT22;3829;50.798;4.358;2023-07-16T12:25:57;25.00;99.90
7576;DHT22;3829;50.798;4.358;2023-07-16T12:28:22;25.30;99.90
7576;DHT22;3829;50.798;4.358;2023-07-16T12:30:48;24.90;99.90
7576;DHT22;3829;50.798;4.358;2023-07-16T12:33:13;24.90;99.90
7576;DHT22;3829;50.798;4.358;2023-07-16T12:35:39;24.50;99.90
7576;DHT22;3829;50.798;4.358;2023-07-16T12:38:05;24.30;99.90
7576;DHT22;3829;50.798;4.358;2023-07-16T12:40:30;24.20;99.90
7576;DHT22;3829;50.798;4.358;2023-07-16T12:42:56;24.40;99.90
7576;DHT22;3829;50.798;4.358;2023-07-16T12:45:22;24.60;99.90
7576;DHT22;3829;50.798;4.358;2023-07-16T12:47:47;24.50;99.90
7576;DHT22;3829;50.798;4.358;2023-07-16T12:50:13;24.60;99.90
7576;DHT22;3829;50.798;4.358;2023-07-16T12:52:38;24.30;99.90
7576;DHT22;3829;50.798;4.358;2023-07-16T12:55:04;23.90;99.90
7576;DHT22;3829;50.798;4.358;2023-07-16T12:57:30;23.70;99.90
7576;DHT22;3829;50.798;4.358;2023-07-16T12:59:55;23.90;99.90
7576;DHT22;3829;50.798;4.358;2023-07-16T13:02:21;24.20;99.90
7576;DHT22;3829;50.798;4.358;2023-07-16T13:04:46;24.60;99.90
7576;DHT22;3829;50.798;4.358;2023-07-16T13:07:12;24.80;99.90
7576;DHT22;3829;50.798;4.358;2023-07-16T13:09:38;24.50;99.90
7576;DHT22;3829;50.798;4.358;2023-07-16T13:12:04;24.70;99.90
7576;DHT22;3829;50.798;4.358;2023-07-16T13:14:29;24.80;99.90
7576;DHT22;3829;50.798;4.358;2023-07-16T13:16:55;24.60;99.90
7576;DHT22;3829;50.798;4.358;2023-07-16T13:19:20;24.80;99.90
7576;DHT22;3829;50.798;4.358;2023-07-16T13:21:46;24.70;99.90
7576;DHT22;3829;50.798;4.358;2023-07-16T13:24:12;24.50;99.90
7576;DHT22;3829;50.798;4.358;2023-07-16T13:26:38;23.90;99.90
7576;DHT22;3829;50.798;4.358;2023-07-16T13:29:04;23.60;99.90
7576;DHT22;3829;50.798;4.358;2023-07-16T13:31:30;23.20;99.90
7576;DHT22;3829;50.798;4.358;2023-07-16T13:33:55;22.90;99.90
7576;DHT22;3829;50.798;4.358;2023-07-16T13:36:21;22.60;99.90
7576;DHT22;3829;50.798;4.358;2023-07-16T13:38:46;22.00;99.90
7576;DHT22;3829;50.798;4.358;2023-07-16T13:41:12;20.90;99.90
7576;DHT22;3829;50.798;4.358;2023-07-16T13:43:38;20.20;99.90
7576;DHT22;3829;50.798;4.358;2023-07-16T13:46:03;20.10;99.90
7576;DHT22;3829;50.798;4.358;2023-07-16T13:48:29;20.10;99.90
7576;DHT22;3829;50.798;4.358;2023-07-16T13:50:55;20.60;99.90
7576;DHT22;3829;50.798;4.358;2023-07-16T13:53:21;21.10;99.90
7576;DHT22;3829;50.798;4.358;2023-07-16T13:55:46;22.20;99.90
7576;DHT22;3829;50.798;4.358;2023-07-16T13:58:12;23.00;99.90
7576;DHT22;3829;50.798;4.358;2023-07-16T14:00:40;22.80;99.90
7576;DHT22;3829;50.798;4.358;2023-07-16T14:03:05;23.00;99.90
7576;DHT22;3829;50.798;4.358;2023-07-16T14:05:31;23.70;99.90
7576;DHT22;3829;50.798;4.358;2023-07-16T14:08:00;23.60;99.90
7576;DHT22;3829;50.798;4.358;2023-07-16T14:10:25;23.70;99.90
7576;DHT22;3829;50.798;4.358;2023-07-16T14:12:51;24.10;99.90
7576;DHT22;3829;50.798;4.358;2023-07-16T14:15:16;24.20;99.90
7576;DHT22;3829;50.798;4.358;2023-07-16T14:17:42;24.30;99.90
7576;DHT22;3829;50.798;4.358;2023-07-16T14:20:08;24.40;99.90
7576;DHT22;3829;50.798;4.358;2023-07-16T14:22:35;25.20;99.90
7576;DHT22;3829;50.798;4.358;2023-07-16T14:25:00;25.10;99.90
7576;DHT22;3829;50.798;4.358;2023-07-16T14:27:26;25.30;99.90
7576;DHT22;3829;50.798;4.358;2023-07-16T14:29:52;25.70;99.90
7576;DHT22;3829;50.798;4.358;2023-07-16T14:32:17;25.50;99.90
7576;DHT22;3829;50.798;4.358;2023-07-16T14:34:43;25.40;99.90
7576;DHT22;3829;50.798;4.358;2023-07-16T14:37:08;25.20;99.90
7576;DHT22;3829;50.798;4.358;2023-07-16T14:39:34;25.80;99.90
7576;DHT22;3829;50.798;4.358;2023-07-16T14:41:59;25.60;99.90
7576;DHT22;3829;50.798;4.358;2023-07-16T14:44:29;26.10;99.90
7576;DHT22;3829;50.798;4.358;2023-07-16T14:46:54;26.20;99.90
7576;DHT22;3829;50.798;4.358;2023-07-16T14:49:20;25.30;99.90
7576;DHT22;3829;50.798;4.358;2023-07-16T14:51:45;25.60;99.90
7576;DHT22;3829;50.798;4.358;2023-07-16T14:54:11;26.10;99.90
7576;DHT22;3829;50.798;4.358;2023-07-16T14:56:37;26.90;99.90
7576;DHT22;3829;50.798;4.358;2023-07-16T14:59:02;26.40;99.90
7576;DHT22;3829;50.798;4.358;2023-07-16T15:01:28;26.80;99.90
7576;DHT22;3829;50.798;4.358;2023-07-16T15:03:54;26.90;99.90
7576;DHT22;3829;50.798;4.358;2023-07-16T15:06:20;26.70;99.90
7576;DHT22;3829;50.798;4.358;2023-07-16T15:08:46;26.30;99.90
7576;DHT22;3829;50.798;4.358;2023-07-16T15:11:12;26.30;99.90
7576;DHT22;3829;50.798;4.358;2023-07-16T15:13:37;25.60;99.90
7576;DHT22;3829;50.798;4.358;2023-07-16T15:16:03;24.90;99.90
7576;DHT22;3829;50.798;4.358;2023-07-16T15:18:29;24.20;99.90
7576;DHT22;3829;50.798;4.358;2023-07-16T15:20:58;24.10;99.90
7576;DHT22;3829;50.798;4.358;2023-07-16T15:23:25;23.80;99.90
7576;DHT22;3829;50.798;4.358;2023-07-16T15:25:53;23.90;99.90
7576;DHT22;3829;50.798;4.358;2023-07-16T15:28:19;24.10;99.90
7576;DHT22;3829;50.798;4.358;2023-07-16T15:30:45;24.40;99.90
7576;DHT22;3829;50.798;4.358;2023-07-16T15:33:10;24.90;99.90
7576;DHT22;3829;50.798;4.358;2023-07-16T15:35:37;25.60;99.90
7576;DHT22;3829;50.798;4.358;2023-07-16T15:38:02;26.00;99.90
7576;DHT22;3829;50.798;4.358;2023-07-16T15:40:31;26.90;99.90
7576;DHT22;3829;50.798;4.358;2023-07-16T15:42:57;27.00;99.90
7576;DHT22;3829;50.798;4.358;2023-07-16T15:45:23;26.70;99.90
7576;DHT22;3829;50.798;4.358;2023-07-16T15:47:48;26.60;99.90
7576;DHT22;3829;50.798;4.358;2023-07-16T15:50:16;26.20;99.90
7576;DHT22;3829;50.798;4.358;2023-07-16T15:52:41;26.10;99.90
7576;DHT22;3829;50.798;4.358;2023-07-16T15:55:07;26.00;99.90
7576;DHT22;3829;50.798;4.358;2023-07-16T15:57:33;25.80;99.90